Time;durP1;ratioP1;P1;durP2;ratioP2;P2;SDS_P1;SDS_P2;PMS_P1;PMS_P2;Temp;Humidity;BMP_temperature;BMP_pressure;BME280_temperature;BME280_humidity;BME280_pressure;Samples;Min_cycle;Max_cycle;Signal;HPM_P1;HPM_P2
2022/08/17 00:00:13;;;;;;;5.40;5.00;;;;;;;21.23;64.85;98021.09;4975497;28;103204;-72
2022/08/17 00:03:12;;;;;;;5.55;5.07;;;;;;;21.30;64.33;98022.81;4973717;28;102888;-71
2022/08/17 00:05:43;;;;;;;4.80;4.40;;;;;;;21.36;63.83;98019.31;4990377;28;103106;-72
2022/08/17 00:08:14;;;;;;;5.90;5.30;;;;;;;21.27;64.53;98009.78;4977538;28;103261;-72
2022/08/17 00:10:43;;;;;;;7.53;6.83;;;;;;;20.95;65.70;98014.81;4972567;28;103200;-72
2022/08/17 00:13:16;;;;;;;7.63;6.93;;;;;;;20.39;68.46;98016.50;4971862;28;103020;-72
2022/08/17 00:15:44;;;;;;;8.25;7.45;;;;;;;20.44;68.59;98016.75;4972886;28;102681;-72
2022/08/17 00:18:12;;;;;;;6.18;5.70;;;;;;;20.79;66.59;98015.91;4975678;28;103980;-72
2022/08/17 00:21:02;;;;;;;7.40;6.70;;;;;;;20.60;67.58;98011.19;4974960;28;103229;-72
2022/08/17 00:23:38;;;;;;;6.33;5.83;;;;;;;20.78;66.56;98009.69;4974064;28;102894;-72
2022/08/17 00:26:15;;;;;;;6.53;6.03;;;;;;;20.85;66.25;98009.78;4976079;28;102671;-71
2022/08/17 00:29:05;;;;;;;6.43;5.90;;;;;;;20.80;66.92;98006.81;4972882;28;103222;-72
2022/08/17 00:31:34;;;;;;;8.43;7.38;;;;;;;20.28;69.55;98011.63;4974680;28;104151;-72
2022/08/17 00:34:03;;;;;;;8.00;7.18;;;;;;;20.44;68.73;98003.34;4974567;28;102683;-72
2022/08/17 00:36:31;;;;;;;6.95;6.35;;;;;;;20.74;66.88;97996.88;4975855;28;102934;-72
2022/08/17 00:38:59;;;;;;;6.05;5.55;;;;;;;20.89;66.00;98005.66;4973578;28;103309;-72
2022/08/17 00:41:28;;;;;;;7.30;6.70;;;;;;;20.89;66.35;98000.31;4973227;28;103237;-72
2022/08/17 00:44:00;;;;;;;7.60;6.70;;;;;;;20.85;66.65;97999.03;4973958;28;102748;-72
2022/08/17 00:46:32;;;;;;;5.63;5.13;;;;;;;20.93;66.14;97996.22;4973397;28;103998;-72
2022/08/17 00:49:00;;;;;;;4.95;4.65;;;;;;;20.96;65.81;97998.53;4974350;28;103292;-72
2022/08/17 00:51:34;;;;;;;6.15;5.65;;;;;;;21.03;65.63;97994.03;4973165;28;103789;-71
2022/08/17 00:54:08;;;;;;;5.60;5.10;;;;;;;20.96;65.86;97998.53;4973504;28;103215;-72
2022/08/17 00:56:41;;;;;;;5.55;5.05;;;;;;;20.95;65.81;98006.75;4972464;28;102889;-72
2022/08/17 00:59:11;;;;;;;8.60;6.90;;;;;;;20.60;67.23;98005.81;4990167;28;103258;-72
2022/08/17 01:01:41;;;;;;;5.10;4.70;;;;;;;20.78;66.12;97995.44;4968195;28;103222;-72
2022/08/17 01:04:10;;;;;;;5.00;4.60;;;;;;;20.87;65.92;97996.97;4968918;28;102928;-72
2022/08/17 01:06:41;;;;;;;5.80;5.40;;;;;;;20.85;66.20;97999.03;4974217;28;102827;-72
2022/08/17 01:09:09;;;;;;;6.93;6.22;;;;;;;20.43;67.83;97994.47;4976178;28;104268;-71
2022/08/17 01:11:39;;;;;;;7.45;6.85;;;;;;;19.90;70.75;97998.31;4973136;28;103369;-72
2022/08/17 01:14:08;;;;;;;7.97;7.00;;;;;;;19.72;72.41;97995.19;4972624;28;102881;-72
2022/08/17 01:16:37;;;;;;;8.45;7.70;;;;;;;19.63;72.44;97989.09;4973460;28;103686;-72
2022/08/17 01:19:15;;;;;;;8.52;7.72;;;;;;;19.25;74.19;97986.63;4969772;28;103248;-72
2022/08/17 01:21:50;;;;;;;6.50;6.00;;;;;;;19.73;72.44;97994.19;4972461;28;103185;-71
2022/08/17 01:24:19;;;;;;;5.82;5.32;;;;;;;20.20;69.52;97989.22;4974308;28;102667;-72
2022/08/17 01:26:47;;;;;;;7.28;6.68;;;;;;;20.13;70.03;97982.94;4973670;28;103958;-72
2022/08/17 01:29:16;;;;;;;5.90;5.40;;;;;;;20.18;69.16;97983.22;4973842;28;103964;-72
2022/08/17 01:31:46;;;;;;;6.20;5.53;;;;;;;20.35;68.69;97991.09;4977200;28;103014;-72
2022/08/17 01:34:16;;;;;;;7.13;6.53;;;;;;;20.23;69.36;97999.59;4972101;28;102750;-72
2022/08/17 01:36:48;;;;;;;8.70;7.30;;;;;;;19.66;71.61;98001.28;4971848;28;103250;-71
2022/08/17 01:39:21;;;;;;;6.27;5.77;;;;;;;19.98;70.36;98000.91;4973058;28;103485;-71
2022/08/17 01:41:53;;;;;;;6.80;6.30;;;;;;;20.16;68.96;97998.66;4973830;28;103213;-72
2022/08/17 01:44:26;;;;;;;6.72;6.13;;;;;;;20.05;70.04;97993.78;4973572;28;102628;-72
2022/08/17 01:46:54;;;;;;;7.22;6.63;;;;;;;19.90;70.75;97998.31;4974335;28;102684;-72
2022/08/17 01:49:22;;;;;;;6.63;6.13;;;;;;;19.97;70.34;98003.78;4974968;28;103577;-72
2022/08/17 01:51:50;;;;;;;8.63;7.93;;;;;;;19.00;74.47;98000.22;4973516;28;103324;-72
2022/08/17 01:54:20;;;;;;;7.63;7.03;;;;;;;19.29;74.04;97998.63;4973274;28;102733;-72
2022/08/17 01:56:50;;;;;;;8.37;7.57;;;;;;;19.39;73.03;98004.59;4972553;28;103235;-71
2022/08/17 01:59:20;;;;;;;6.43;5.93;;;;;;;19.59;72.17;98005.75;4973405;28;103266;-72
2022/08/17 02:01:48;;;;;;;7.55;6.93;;;;;;;19.59;72.41;98001.19;4964933;28;104335;-72
2022/08/17 02:04:16;;;;;;;7.88;7.13;;;;;;;19.32;74.12;97991.06;4977015;28;103090;-72
2022/08/17 02:06:44;;;;;;;6.65;6.15;;;;;;;19.62;72.35;98000.00;4970608;28;102713;-72
2022/08/17 02:09:23;;;;;;;5.47;5.07;;;;;;;19.86;71.02;98005.09;4970557;28;104557;-71
2022/08/17 02:11:53;;;;;;;5.30;4.90;;;;;;;19.99;70.04;98007.09;4970633;28;103449;-72
2022/08/17 02:14:24;;;;;;;6.28;5.78;;;;;;;19.96;70.05;98012.81;4973756;28;102858;-72
2022/08/17 02:16:54;;;;;;;7.80;7.00;;;;;;;19.64;71.51;98008.69;4971507;28;102831;-72
2022/08/17 02:19:22;;;;;;;8.75;7.07;;;;;;;19.57;71.54;98013.09;4972597;28;103223;-72
2022/08/17 02:21:53;;;;;;;7.10;6.45;;;;;;;19.49;72.14;98007.84;4972608;28;103177;-71
2022/08/17 02:24:26;;;;;;;8.40;7.60;;;;;;;19.49;72.33;98013.19;4975668;28;102691;-72
2022/08/17 02:27:14;;;;;;;5.50;5.10;;;;;;;19.78;70.73;98005.19;4973223;28;104048;-71
2022/08/17 02:29:42;;;;;;;8.00;7.20;;;;;;;19.74;71.03;98011.06;4972442;28;104453;-71
2022/08/17 02:32:18;;;;;;;7.30;6.65;;;;;;;19.59;72.23;98005.75;4973370;28;103793;-72
2022/08/17 02:34:55;;;;;;;6.85;6.25;;;;;;;19.66;71.05;98012.00;4973190;28;102651;-72
2022/08/17 02:37:23;;;;;;;7.57;6.97;;;;;;;19.61;71.54;98003.69;4972618;28;103667;-72
2022/08/17 02:39:52;;;;;;;6.90;6.20;;;;;;;19.72;70.69;98008.59;4976637;28;103286;-71
2022/08/17 02:42:27;;;;;;;7.43;6.88;;;;;;;19.56;71.49;98004.22;4971630;28;103506;-72
2022/08/17 02:44:55;;;;;;;8.07;7.38;;;;;;;19.34;72.83;98004.28;4972414;28;102813;-72
2022/08/17 02:47:23;;;;;;;5.73;5.33;;;;;;;19.57;72.06;98007.75;4950034;28;103017;-71
2022/08/17 02:49:51;;;;;;;7.03;6.43;;;;;;;19.66;70.93;98003.97;4956271;28;104049;-71
2022/08/17 02:52:24;;;;;;;8.40;7.70;;;;;;;19.32;72.48;98003.63;4969537;28;103255;-71
2022/08/17 02:55:19;;;;;;;7.20;6.60;;;;;;;19.48;72.67;98014.22;4967943;28;102936;-72
2022/08/17 02:57:48;;;;;;;8.03;7.33;;;;;;;19.29;73.28;98010.19;4964387;28;103159;-72
2022/08/17 03:00:20;;;;;;;8.82;8.07;;;;;;;18.97;74.74;98003.28;4967314;28;103256;-72
2022/08/17 03:02:48;;;;;;;9.35;8.40;;;;;;;18.87;75.47;98010.72;4973564;28;103008;-72
2022/08/17 03:05:20;;;;;;;7.77;7.07;;;;;;;19.27;73.45;98011.38;4968885;28;102946;-72
2022/08/17 03:07:51;;;;;;;8.77;8.02;;;;;;;19.40;72.91;98003.56;4965662;28;102685;-72
2022/08/17 03:10:21;;;;;;;9.23;8.30;;;;;;;19.40;73.39;98006.25;4961203;28;103293;-71
2022/08/17 03:12:49;;;;;;;7.20;6.60;;;;;;;19.49;72.48;98005.16;4962964;28;104356;-72
2022/08/17 03:15:19;;;;;;;8.67;7.83;;;;;;;19.61;71.21;98004.53;4966945;28;103308;-71
2022/08/17 03:17:48;;;;;;;8.38;7.68;;;;;;;19.63;71.21;98009.69;4969969;28;102928;-72
2022/08/17 03:20:16;;;;;;;5.72;5.28;;;;;;;19.74;69.27;98009.22;4969747;28;103974;-70
2022/08/17 03:22:46;;;;;;;5.60;5.20;;;;;;;19.84;69.41;98015.16;4959582;28;103439;-72
2022/08/17 03:25:24;;;;;;;6.00;5.50;;;;;;;19.90;68.71;98010.91;4984900;28;102864;-72
2022/08/17 03:27:53;;;;;;;6.53;5.97;;;;;;;19.78;69.91;98002.50;4968438;28;102792;-72
2022/08/17 03:30:22;;;;;;;5.65;5.22;;;;;;;19.91;68.71;98001.84;4968656;28;103389;-72
2022/08/17 03:32:53;;;;;;;5.90;5.45;;;;;;;19.97;68.10;98023.38;4963078;28;103198;-72
2022/08/17 03:35:23;;;;;;;5.40;5.00;;;;;;;20.03;68.39;98025.31;4965889;28;102722;-72
2022/08/17 03:37:51;;;;;;;5.97;5.47;;;;;;;20.05;68.85;98031.31;4966777;28;102896;-70
2022/08/17 03:40:32;;;;;;;5.15;4.75;;;;;;;20.07;67.39;98029.28;4968039;28;103376;-72
2022/08/17 03:43:21;;;;;;;4.83;4.43;;;;;;;20.16;67.04;98041.56;4969219;28;104718;-73
2022/08/17 03:57:30;;;;;;;5.80;5.40;;;;;;;20.04;67.90;98035.00;4909538;28;102842;-72
2022/08/17 03:59:58;;;;;;;4.75;4.45;;;;;;;20.03;67.44;98035.19;4908698;28;103739;-72
2022/08/17 04:02:30;;;;;;;6.60;6.00;;;;;;;20.05;67.22;98034.00;4943680;28;104766;-74
2022/08/17 04:04:58;;;;;;;6.90;6.30;;;;;;;20.00;67.81;98040.94;4974294;28;103207;-65
2022/08/17 04:07:29;;;;;;;5.30;4.80;;;;;;;19.88;68.84;98048.59;4973787;28;102927;-75
2022/08/17 04:09:58;;;;;;;7.60;6.90;;;;;;;19.70;69.85;98050.84;4996133;28;102829;-75
2022/08/17 04:12:29;;;;;;;5.93;5.53;;;;;;;19.75;69.41;98048.44;4975171;28;104742;-75
2022/08/17 04:14:58;;;;;;;6.13;5.53;;;;;;;19.78;68.83;98058.78;4974245;28;103161;-65
2022/08/17 04:17:27;;;;;;;7.40;6.70;;;;;;;19.43;71.05;98054.09;4990233;28;102955;-64
2022/08/17 04:19:58;;;;;;;6.50;6.00;;;;;;;19.54;70.65;98051.81;4976022;28;102651;-75
2022/08/17 04:22:26;;;;;;;9.13;8.23;;;;;;;18.30;76.26;98054.88;4974591;28;103546;-67
2022/08/17 04:25:01;;;;;;;9.30;8.20;;;;;;;18.36;76.96;98064.84;4970886;28;103042;-66
2022/08/17 04:27:30;;;;;;;8.63;7.82;;;;;;;18.61;75.64;98073.63;4976332;28;103196;-67
2022/08/17 04:29:58;;;;;;;8.85;7.95;;;;;;;18.91;74.83;98073.59;4973550;28;102784;-68
2022/08/17 04:32:26;;;;;;;6.37;5.87;;;;;;;19.27;72.94;98075.66;4979877;28;103382;-69
2022/08/17 04:35:18;;;;;;;6.97;6.35;;;;;;;19.51;71.47;98078.13;4974718;28;103294;-69
2022/08/17 04:37:46;;;;;;;7.97;7.18;;;;;;;19.40;72.15;98078.56;4981443;28;102786;-69
2022/08/17 04:43:02;;;;;;;8.10;7.30;;;;;;;19.51;70.92;98086.16;4978108;28;103413;-68
2022/08/17 04:45:31;;;;;;;5.32;4.90;;;;;;;19.61;69.79;98092.13;4980488;28;103221;-68
2022/08/17 04:48:00;;;;;;;4.70;4.30;;;;;;;19.73;68.19;98084.47;4980173;28;102734;-68
2022/08/17 04:50:28;;;;;;;5.93;5.43;;;;;;;19.75;68.75;98091.31;4983719;28;104390;-68
2022/08/17 04:52:56;;;;;;;5.88;5.47;;;;;;;19.69;69.09;98086.66;4980002;28;104208;-68
2022/08/17 04:55:25;;;;;;;7.85;7.20;;;;;;;19.64;70.03;98081.03;4971881;28;103247;-68
2022/08/17 04:57:55;;;;;;;8.63;7.82;;;;;;;19.24;72.59;98078.69;4976809;28;104013;-68
2022/08/17 05:00:25;;;;;;;6.30;5.72;;;;;;;19.44;71.59;98078.03;4974194;28;103885;-68
2022/08/17 05:02:55;;;;;;;8.10;7.40;;;;;;;19.47;72.27;98092.91;4971363;28;103276;-68
2022/08/17 05:05:26;;;;;;;5.70;5.30;;;;;;;19.74;70.29;98094.16;4966674;28;103186;-67
2022/08/17 05:07:57;;;;;;;8.30;7.50;;;;;;;19.59;71.39;98108.34;4983183;28;102757;-68
2022/08/17 05:10:29;;;;;;;7.93;7.20;;;;;;;19.85;69.71;98118.66;4979082;28;103028;-68
2022/08/17 05:12:58;;;;;;;7.40;6.80;;;;;;;19.96;70.17;98112.00;4980583;28;103281;-68
2022/08/17 05:15:29;;;;;;;8.80;7.90;;;;;;;19.33;72.79;98109.75;4973506;28;103282;-68
2022/08/17 05:18:00;;;;;;;6.53;6.03;;;;;;;19.67;71.93;98112.81;4971852;28;102685;-68
2022/08/17 05:20:28;;;;;;;9.05;7.32;;;;;;;20.04;70.96;98104.72;4969316;28;103640;-68
2022/08/17 05:22:58;;;;;;;7.13;6.43;;;;;;;20.26;70.12;98104.84;4975742;28;103292;-68
2022/08/17 05:25:28;;;;;;;6.55;6.05;;;;;;;20.36;68.71;98108.91;4977727;28;103216;-69
2022/08/17 05:28:03;;;;;;;6.90;6.20;;;;;;;20.56;68.56;98106.47;4978723;28;102695;-68
2022/08/17 05:30:34;;;;;;;6.97;6.28;;;;;;;20.62;68.25;98095.81;4976615;28;102758;-69
2022/08/17 05:33:07;;;;;;;8.43;7.57;;;;;;;20.54;68.90;98097.78;4979819;28;104028;-69
2022/08/17 05:35:38;;;;;;;7.00;5.20;;;;;;;20.76;68.17;98099.50;4981115;28;102907;-69
2022/08/17 05:38:07;;;;;;;6.05;5.55;;;;;;;20.92;68.02;98107.31;4977181;28;102617;-69
2022/08/17 05:40:35;;;;;;;6.73;6.17;;;;;;;20.98;66.90;98106.56;4980667;28;103119;-68
2022/08/17 05:43:06;;;;;;;7.95;7.28;;;;;;;20.97;67.12;98104.88;4980461;28;103487;-68
2022/08/17 05:45:37;;;;;;;7.80;7.10;;;;;;;21.12;66.59;98097.63;4979426;28;103250;-68
2022/08/17 05:48:23;;;;;;;8.18;7.47;;;;;;;21.02;67.20;98090.91;4979863;28;102693;-69
2022/08/17 05:51:27;;;;;;;7.97;7.27;;;;;;;21.23;66.51;98099.81;4991190;28;103654;-69
2022/08/17 05:54:07;;;;;;;5.63;5.22;;;;;;;21.52;65.56;98101.53;4974211;28;104070;-69
2022/08/17 05:56:55;;;;;;;6.18;5.68;;;;;;;21.75;65.29;98101.28;4977506;28;103235;-68
2022/08/17 05:59:32;;;;;;;8.00;7.30;;;;;;;21.85;65.53;98115.22;4978099;28;102629;-68
2022/08/17 06:02:11;;;;;;;7.93;7.20;;;;;;;21.98;65.70;98120.69;4980677;28;104013;-69
2022/08/17 06:04:54;;;;;;;9.23;8.30;;;;;;;21.51;68.27;98113.28;4980349;28;103276;-69
2022/08/17 06:07:31;;;;;;;9.02;8.27;;;;;;;21.70;68.60;98112.63;4977512;28;103343;-69
2022/08/17 06:10:05;;;;;;;8.27;7.57;;;;;;;22.17;67.41;98114.66;4974126;28;102867;-68
2022/08/17 06:12:59;;;;;;;8.25;7.45;;;;;;;22.35;66.60;98122.19;4974611;28;103183;-69
2022/08/17 06:15:31;;;;;;;9.38;8.48;;;;;;;22.40;65.94;98125.94;4972140;28;103308;-69
2022/08/17 06:18:05;;;;;;;8.18;7.47;;;;;;;22.49;65.50;98138.19;4979230;28;103352;-69
2022/08/17 06:20:43;;;;;;;9.43;8.45;;;;;;;22.57;65.84;98136.38;4972640;28;102629;-69
2022/08/17 06:23:18;;;;;;;8.07;7.38;;;;;;;22.71;64.70;98138.13;4977111;28;102711;-69
2022/08/17 06:25:49;;;;;;;7.68;7.03;;;;;;;22.80;64.85;98137.75;4988143;28;103247;-69
2022/08/17 06:28:30;;;;;;;8.32;7.63;;;;;;;22.87;64.90;98143.16;4976167;28;103361;-69
2022/08/17 06:31:05;;;;;;;8.68;7.78;;;;;;;23.10;64.36;98133.69;4965489;28;102785;-69
2022/08/17 06:33:38;;;;;;;12.77;9.68;;;;;;;23.07;64.65;98133.28;4970749;27;102770;-69
2022/08/17 06:36:21;;;;;;;9.50;8.60;;;;;;;23.12;64.51;98129.97;4974152;28;103238;-69
2022/08/17 06:38:59;;;;;;;9.53;8.63;;;;;;;23.33;63.99;98138.72;4972361;28;103313;-69
2022/08/17 06:41:37;;;;;;;12.63;10.18;;;;;;;23.26;64.01;98143.28;4967865;28;102777;-68
2022/08/17 06:44:12;;;;;;;12.63;10.98;;;;;;;23.02;64.40;98143.81;4968053;28;102867;-68
2022/08/17 06:47:07;;;;;;;12.13;10.88;;;;;;;23.30;63.46;98167.97;4997647;27;103293;-69
2022/08/17 06:49:46;;;;;;;11.77;10.13;;;;;;;23.51;62.55;98163.25;4970228;28;103305;-68
2022/08/17 06:52:25;;;;;;;12.60;10.48;;;;;;;23.78;61.39;98164.09;4971116;28;103092;-69
2022/08/17 06:55:20;;;;;;;10.98;8.50;;;;;;;24.18;60.81;98159.53;4968196;28;102738;-69
2022/08/17 06:57:52;;;;;;;10.33;8.67;;;;;;;24.58;58.80;98149.50;4975487;28;103273;-68
2022/08/17 07:00:23;;;;;;;9.70;8.07;;;;;;;24.42;59.21;98145.38;4966209;28;103284;-69
2022/08/17 07:02:57;;;;;;;11.83;8.10;;;;;;;24.38;57.60;98141.44;4965911;28;103240;-69
2022/08/17 07:05:32;;;;;;;10.25;7.07;;;;;;;24.63;58.00;98139.72;4965762;28;104796;-69
2022/08/17 07:08:08;;;;;;;11.27;6.80;;;;;;;25.24;56.10;98128.41;4969843;28;103309;-70
2022/08/17 07:10:41;;;;;;;7.10;6.30;;;;;;;25.57;55.63;98130.94;4966265;28;103074;-69
2022/08/17 07:13:31;;;;;;;7.68;6.88;;;;;;;25.38;54.29;98124.59;4970807;28;102718;-69
2022/08/17 07:16:18;;;;;;;7.90;6.50;;;;;;;25.30;53.70;98132.97;4970955;28;102654;-68
2022/08/17 07:18:49;;;;;;;7.72;6.20;;;;;;;25.40;54.14;98127.09;4970029;28;104106;-69
2022/08/17 07:21:28;;;;;;;7.82;6.57;;;;;;;25.57;54.44;98129.03;4970345;28;103001;-70
2022/08/17 07:24:06;;;;;;;5.38;4.90;;;;;;;25.80;54.69;98123.03;4982825;28;103549;-70
2022/08/17 07:26:34;;;;;;;5.95;5.40;;;;;;;26.32;52.77;98121.75;4970509;28;103875;-69
2022/08/17 07:29:02;;;;;;;9.05;5.65;;;;;;;26.42;51.08;98116.63;4974944;28;103345;-70
2022/08/17 07:31:32;;;;;;;8.50;6.22;;;;;;;26.71;51.48;98118.59;4974706;28;103168;-69
2022/08/17 07:34:06;;;;;;;9.43;6.80;;;;;;;26.79;52.11;98117.47;4974227;28;102693;-70
2022/08/17 07:36:36;;;;;;;9.43;7.00;;;;;;;26.90;52.17;98124.84;4973312;28;102829;-70
2022/08/17 07:39:04;;;;;;;9.27;6.30;;;;;;;26.73;52.45;98124.59;4970503;28;103461;-69
2022/08/17 07:41:39;;;;;;;7.13;6.10;;;;;;;27.09;51.92;98117.53;4976430;28;103215;-70
2022/08/17 07:44:28;;;;;;;7.32;6.55;;;;;;;27.68;50.41;98106.59;4977185;28;102653;-70
2022/08/17 07:49:45;;;;;;;7.93;6.40;;;;;;;27.13;48.62;98119.53;4972886;28;103059;-70
2022/08/17 07:52:28;;;;;;;9.23;6.70;;;;;;;27.15;48.71;98127.41;4975516;28;103204;-70
2022/08/17 07:55:28;;;;;;;6.97;5.83;;;;;;;26.98;49.69;98138.91;4970442;28;103294;-68
2022/08/17 07:57:58;;;;;;;10.90;6.30;;;;;;;26.95;49.19;98136.66;4973689;28;102765;-70
2022/08/17 08:00:27;;;;;;;5.32;4.93;;;;;;;27.18;49.57;98137.81;4971893;28;103564;-70
2022/08/17 08:03:04;;;;;;;7.72;5.93;;;;;;;26.72;50.61;98138.38;4972969;28;103266;-70
2022/08/17 08:05:33;;;;;;;5.50;5.07;;;;;;;27.37;49.93;98144.84;4986782;28;103495;-70
2022/08/17 08:08:26;;;;;;;5.60;5.07;;;;;;;27.46;50.48;98151.63;4973426;28;103039;-70
2022/08/17 08:11:02;;;;;;;4.95;4.55;;;;;;;27.40;50.07;98141.66;4971985;28;104149;-70
2022/08/17 08:13:32;;;;;;;6.85;5.70;;;;;;;27.01;50.45;98143.03;4972604;28;103183;-70
2022/08/17 08:16:24;;;;;;;7.38;5.25;;;;;;;26.87;51.13;98155.94;4977614;28;102956;-70
2022/08/17 08:18:55;;;;;;;7.03;4.72;;;;;;;27.05;50.69;98144.25;4973090;28;103921;-70
2022/08/17 08:21:46;;;;;;;6.13;5.20;;;;;;;27.67;49.76;98148.38;4982307;28;103335;-70
2022/08/17 08:24:35;;;;;;;5.47;4.95;;;;;;;27.90;48.89;98158.47;4968695;28;104343;-70
2022/08/17 08:27:11;;;;;;;6.22;5.47;;;;;;;27.60;49.48;98164.75;4974516;28;102691;-70
2022/08/17 08:29:47;;;;;;;7.22;5.15;;;;;;;28.00;49.48;98164.97;4969756;28;102708;-70
2022/08/17 08:32:27;;;;;;;7.85;5.82;;;;;;;27.98;49.03;98163.53;4980752;28;104075;-70
2022/08/17 08:35:03;;;;;;;8.70;6.25;;;;;;;27.76;48.67;98157.84;4978462;28;103457;-70
2022/08/17 08:37:41;;;;;;;5.43;4.93;;;;;;;27.90;48.16;98161.97;4973164;28;102829;-64
2022/08/17 08:40:33;;;;;;;7.05;4.60;;;;;;;28.06;48.89;98164.06;4971664;28;102907;-63
2022/08/17 08:43:14;;;;;;;9.00;5.78;;;;;;;27.24;50.88;98169.44;4966214;28;104434;-63
2022/08/17 08:45:50;;;;;;;7.18;5.32;;;;;;;26.97;50.44;98177.09;4970349;28;103227;-64
2022/08/17 08:48:37;;;;;;;4.40;4.03;;;;;;;27.62;49.07;98178.91;4966062;28;102881;-64
2022/08/17 08:51:39;;;;;;;6.93;5.47;;;;;;;27.70;50.82;98183.19;4965740;28;104920;-64
2022/08/17 08:54:34;;;;;;;4.57;4.20;;;;;;;27.70;51.03;98183.19;4971257;27;103254;-64
2022/08/17 08:57:16;;;;;;;4.70;4.20;;;;;;;27.85;51.08;98180.03;4963372;28;103423;-64
2022/08/17 09:00:09;;;;;;;7.70;4.97;;;;;;;27.16;50.21;98191.44;4954315;28;102928;-63
2022/08/17 09:03:01;;;;;;;4.22;3.70;;;;;;;27.63;49.09;98186.00;4959402;28;103027;-63
2022/08/17 09:05:41;;;;;;;6.47;4.37;;;;;;;27.63;50.23;98193.31;4945550;28;103881;-63
2022/08/17 09:08:17;;;;;;;5.90;4.00;;;;;;;27.39;49.43;98183.41;4967361;28;103232;-64
2022/08/17 09:10:56;;;;;;;7.93;3.88;;;;;;;27.40;49.38;98174.19;4912037;27;103515;-64
2022/08/17 09:13:35;;;;;;;7.50;4.40;;;;;;;26.71;49.61;98175.50;4958103;28;102856;-63
2022/08/17 09:16:08;;;;;;;5.07;4.30;;;;;;;26.69;49.73;98177.59;4970309;28;103997;-64
2022/08/17 09:18:41;;;;;;;5.30;4.00;;;;;;;26.90;49.56;98169.03;4963871;28;103207;-63
2022/08/17 09:21:36;;;;;;;5.65;3.70;;;;;;;27.46;50.52;98173.31;4954475;28;103124;-64
2022/08/17 09:24:23;;;;;;;4.00;3.47;;;;;;;27.28;50.30;98174.19;4961052;28;104146;-64
2022/08/17 09:26:58;;;;;;;6.03;3.97;;;;;;;27.54;48.97;98175.69;4958504;28;103364;-64
2022/08/17 09:29:33;;;;;;;6.05;4.07;;;;;;;27.28;50.58;98170.63;4963612;28;103437;-64
2022/08/17 09:32:09;;;;;;;5.68;3.80;;;;;;;27.15;48.39;98187.06;4959465;28;102809;-63
2022/08/17 09:34:42;;;;;;;3.77;3.07;;;;;;;27.59;49.58;98186.72;4965900;28;102742;-63
2022/08/17 09:37:22;;;;;;;3.60;3.30;;;;;;;27.63;51.67;98201.44;4968375;28;103293;-63
2022/08/17 09:40:07;;;;;;;3.42;3.05;;;;;;;27.68;53.10;98208.91;4966884;28;103203;-64
2022/08/17 09:42:48;;;;;;;8.15;4.00;;;;;;;27.61;52.21;98209.84;4962444;28;103214;-64
2022/08/17 09:45:27;;;;;;;14.88;5.32;;;;;;;27.34;52.31;98205.78;4978482;27;103379;-64
2022/08/17 09:48:00;;;;;;;13.17;5.37;;;;;;;27.29;51.67;98213.78;4979076;28;103262;-64
2022/08/17 09:50:36;;;;;;;21.55;5.60;;;;;;;27.34;50.40;98210.41;4965555;28;103294;-64
2022/08/17 09:53:24;;;;;;;11.93;5.18;;;;;;;26.96;50.47;98203.38;4979527;28;102896;-66
2022/08/17 09:56:17;;;;;;;6.65;3.63;;;;;;;27.28;50.59;98200.47;4976965;28;104390;-64
2022/08/17 09:59:02;;;;;;;5.93;4.07;;;;;;;26.98;52.05;98190.41;4951173;28;105104;-63
2022/08/17 10:01:38;;;;;;;10.07;5.03;;;;;;;26.49;52.89;98188.66;4978359;28;103248;-63
2022/08/17 10:04:22;;;;;;;4.72;3.15;;;;;;;26.93;53.73;98190.25;4977739;28;102847;-63
2022/08/17 10:07:03;;;;;;;5.75;3.53;;;;;;;27.05;55.45;98217.44;4972394;28;102694;-63
2022/08/17 10:09:43;;;;;;;6.10;4.40;;;;;;;27.02;57.65;98231.44;4986994;27;103286;-64
2022/08/17 10:12:20;;;;;;;8.17;5.63;;;;;;;26.66;60.47;98224.09;4980750;28;103200;-63
2022/08/17 10:15:02;;;;;;;7.82;6.45;;;;;;;25.93;65.91;98210.38;4966693;28;103091;-63
2022/08/17 10:17:46;;;;;;;5.18;4.40;;;;;;;26.35;65.28;98219.63;4962442;28;103152;-63
2022/08/17 10:20:20;;;;;;;4.78;4.28;;;;;;;26.58;63.11;98223.56;4976617;28;103303;-63
2022/08/17 10:28:40;;;;;;;7.70;6.32;;;;;;;25.92;65.70;98221.41;4971565;28;103407;-63
2022/08/17 10:31:11;;;;;;;6.80;6.10;;;;;;;26.23;66.31;98232.22;4947027;28;104289;-63
2022/08/17 10:34:26;;;;;;;4.55;4.25;;;;;;;26.47;65.60;98238.69;4958762;28;103037;-63
2022/08/17 10:37:11;;;;;;;5.80;5.30;;;;;;;26.57;68.26;98249.81;4929172;28;103019;-63
2022/08/17 10:39:50;;;;;;;6.93;6.28;;;;;;;26.65;66.63;98244.09;4959781;28;102941;-63
2022/08/17 10:42:26;;;;;;;5.28;4.78;;;;;;;26.81;66.90;98250.84;4965222;28;104168;-63
2022/08/17 10:45:05;;;;;;;9.13;7.20;;;;;;;26.53;67.62;98255.91;4963963;28;103351;-63
2022/08/17 10:47:58;;;;;;;7.07;6.47;;;;;;;26.47;66.93;98261.16;4945102;28;103089;-63
2022/08/17 10:50:57;;;;;;;7.80;6.78;;;;;;;26.41;67.51;98266.66;4958533;28;104008;-63
2022/08/17 10:53:53;;;;;;;7.18;6.57;;;;;;;26.64;67.67;98277.66;4939493;28;103237;-63
2022/08/17 10:56:48;;;;;;;4.45;4.13;;;;;;;26.63;66.73;98275.19;4938658;28;103224;-63
2022/08/17 10:59:49;;;;;;;8.90;7.20;;;;;;;25.24;70.35;98280.63;4959679;28;102729;-63
2022/08/17 11:02:40;;;;;;;5.90;5.37;;;;;;;25.52;69.68;98287.59;4961518;28;104630;-63
2022/08/17 11:05:26;;;;;;;6.83;6.13;;;;;;;25.84;68.63;98300.97;4946147;28;103311;-63
2022/08/17 11:08:20;;;;;;;6.72;6.05;;;;;;;25.71;65.94;98298.31;4965248;28;103787;-63
2022/08/17 11:11:19;;;;;;;5.75;4.97;;;;;;;25.49;63.29;98298.88;4938226;28;102814;-63
2022/08/17 11:14:05;;;;;;;6.50;4.57;;;;;;;25.00;66.14;98305.66;4962203;28;103818;-63
2022/08/17 11:16:49;;;;;;;5.00;4.40;;;;;;;24.40;69.22;98293.22;4960633;28;103396;-63
2022/08/17 11:19:54;;;;;;;5.00;4.43;;;;;;;24.78;67.56;98301.50;4979098;28;103210;-64
2022/08/17 11:22:57;;;;;;;6.03;4.57;;;;;;;24.49;68.02;98299.25;4962575;28;103191;-64
2022/08/17 11:25:38;;;;;;;4.53;4.07;;;;;;;24.63;68.24;98299.03;4983521;28;102875;-64
2022/08/17 11:28:13;;;;;;;5.55;4.97;;;;;;;24.03;70.18;98285.69;4981737;28;103260;-64
2022/08/17 11:30:46;;;;;;;5.55;4.70;;;;;;;24.17;69.91;98298.19;4961713;28;103467;-64
2022/08/17 11:33:53;;;;;;;5.30;4.78;;;;;;;23.98;70.59;98285.50;4979760;28;102792;-64
2022/08/17 11:36:48;;;;;;;3.60;3.30;;;;;;;24.64;69.86;98291.78;4965508;28;102944;-63
2022/08/17 11:39:43;;;;;;;4.20;3.72;;;;;;;24.86;71.01;98303.19;4976652;28;103354;-63
2022/08/17 11:42:27;;;;;;;4.82;4.05;;;;;;;24.89;72.41;98303.59;4959610;28;104136;-63
2022/08/17 11:44:57;;;;;;;6.00;5.38;;;;;;;24.07;75.84;98319.34;4985827;28;102788;-63
2022/08/17 11:54:03;;;;;;;5.97;4.88;;;;;;;24.71;71.43;98316.88;4980539;28;103386;-63
2022/08/17 11:56:51;;;;;;;5.80;5.18;;;;;;;24.67;71.10;98321.88;4981790;28;102705;-63
2022/08/17 11:59:59;;;;;;;6.60;5.40;;;;;;;24.59;71.53;98316.69;4964998;28;103985;-63
2022/08/17 12:02:42;;;;;;;4.72;4.25;;;;;;;24.91;71.30;98306.91;4978910;27;104224;-63
2022/08/17 12:05:33;;;;;;;6.43;5.72;;;;;;;24.80;71.86;98294.06;4990866;28;103611;-63
2022/08/17 12:08:16;;;;;;;5.93;5.27;;;;;;;25.04;70.83;98306.88;4980935;28;102967;-63
2022/08/17 12:11:07;;;;;;;6.03;5.40;;;;;;;24.64;73.15;98289.91;4981378;28;103881;-63
2022/08/17 12:14:56;;;;;;;5.25;4.75;;;;;;;25.00;70.57;98289.44;4970262;28;106020;-63
2022/08/17 12:17:45;;;;;;;6.05;5.43;;;;;;;25.23;71.67;98283.56;4971620;28;103125;-63
2022/08/17 12:20:22;;;;;;;8.18;5.90;;;;;;;25.17;71.49;98276.28;4987627;28;102730;-73
2022/08/17 12:22:59;;;;;;;6.40;5.80;;;;;;;25.61;71.45;98260.09;4967852;28;102810;-74
2022/08/17 12:25:35;;;;;;;6.90;6.20;;;;;;;25.76;71.46;98255.22;4985839;28;103211;-74
2022/08/17 12:28:04;;;;;;;6.83;5.40;;;;;;;26.16;71.00;98260.41;4987069;28;103302;-74
2022/08/17 12:30:36;;;;;;;7.07;5.60;;;;;;;26.12;70.67;98251.84;4965399;28;102999;-74
2022/08/17 12:33:13;;;;;;;5.82;5.28;;;;;;;26.27;68.88;98248.84;4986466;28;104124;-74
2022/08/17 12:35:57;;;;;;;5.20;4.70;;;;;;;26.40;67.92;98243.31;4986320;28;104039;-74
2022/08/17 12:38:26;;;;;;;7.35;6.65;;;;;;;25.97;69.72;98234.25;4985415;28;103286;-74